Time;durP1;ratioP1;P1;durP2;ratioP2;P2;SDS_P1;SDS_P2;PMS_P1;PMS_P2;Temp;Humidity;BMP_temperature;BMP_pressure;BME280_temperature;BME280_humidity;BME280_pressure;Samples;Min_cycle;Max_cycle;Signal;HPM_P1;HPM_P2
2021/03/23 00:01:25;;;;;;;12.35;9.13;;;5.50;86.50;;;;;;5067625;28;20081;-76
2021/03/23 00:03:52;;;;;;;10.55;8.32;;;5.00;88.60;;;;;;5055665;28;20377;-76
2021/03/23 00:06:24;;;;;;;11.48;8.38;;;5.00;89.30;;;;;;5064443;28;20650;-76
2021/03/23 00:08:53;;;;;;;10.68;9.13;;;5.20;88.10;;;;;;5062539;28;20032;-75
2021/03/23 00:11:29;;;;;;;11.20;8.30;;;5.40;87.50;;;;;;5057077;28;20017;-75
2021/03/23 00:13:56;;;;;;;10.75;8.18;;;5.70;86.00;;;;;;5067602;28;20025;-76
2021/03/23 00:16:26;;;;;;;12.23;9.02;;;5.70;84.60;;;;;;5059133;28;20054;-76
2021/03/23 00:18:52;;;;;;;11.27;8.73;;;5.70;85.70;;;;;;5056634;28;20469;-75
2021/03/23 00:21:18;;;;;;;9.90;8.52;;;5.60;85.70;;;;;;5065999;28;20024;-76
2021/03/23 00:23:44;;;;;;;10.43;8.38;;;5.50;87.60;;;;;;5068791;28;20074;-76
2021/03/23 00:26:11;;;;;;;11.75;9.18;;;5.50;88.20;;;;;;5057265;28;20020;-75
2021/03/23 00:28:38;;;;;;;11.00;8.88;;;5.20;87.70;;;;;;5058439;28;20024;-76
2021/03/23 00:31:04;;;;;;;10.55;8.57;;;5.10;89.20;;;;;;5057363;28;20021;-75
2021/03/23 00:33:31;;;;;;;10.63;8.30;;;4.90;90.10;;;;;;5066768;28;20031;-75
2021/03/23 00:36:00;;;;;;;9.48;8.27;;;4.90;90.60;;;;;;5054932;28;20524;-76
2021/03/23 00:38:28;;;;;;;12.70;9.40;;;4.80;90.90;;;;;;5060053;28;20435;-75
2021/03/23 00:40:54;;;;;;;10.38;8.93;;;4.70;90.60;;;;;;5061873;28;20884;-75
2021/03/23 00:43:20;;;;;;;12.85;8.40;;;4.60;90.50;;;;;;5056881;28;20025;-76
2021/03/23 00:45:46;;;;;;;11.40;9.05;;;4.60;90.80;;;;;;5068477;28;20046;-75
2021/03/23 00:48:15;;;;;;;11.98;8.85;;;4.60;91.00;;;;;;5070356;28;20066;-76
2021/03/23 00:50:41;;;;;;;11.88;8.68;;;4.80;90.30;;;;;;5070264;28;20016;-76
2021/03/23 00:53:07;;;;;;;11.32;9.10;;;4.90;91.20;;;;;;5070417;28;20024;-75
2021/03/23 00:55:33;;;;;;;13.55;9.55;;;4.80;90.90;;;;;;5058977;28;20103;-75
2021/03/23 00:57:59;;;;;;;11.43;9.60;;;4.60;91.50;;;;;;5055613;28;20174;-76
2021/03/23 01:00:26;;;;;;;12.85;9.15;;;4.60;91.60;;;;;;5072284;28;20074;-76
2021/03/23 01:02:52;;;;;;;12.43;9.95;;;4.50;92.00;;;;;;5072554;28;20027;-76
2021/03/23 01:05:21;;;;;;;13.45;10.15;;;4.40;91.80;;;;;;5072210;28;20488;-76
2021/03/23 01:07:46;;;;;;;13.15;9.45;;;4.30;91.80;;;;;;5071863;28;20044;-76
2021/03/23 01:10:15;;;;;;;11.73;9.00;;;4.20;91.30;;;;;;5073078;28;20460;-76
2021/03/23 01:12:41;;;;;;;9.63;8.63;;;4.00;92.50;;;;;;5072723;28;20025;-76
2021/03/23 01:15:10;;;;;;;13.43;9.88;;;3.90;92.70;;;;;;5072970;28;20029;-75
2021/03/23 01:17:36;;;;;;;11.48;8.93;;;4.00;93.10;;;;;;5071624;28;20043;-75
2021/03/23 01:20:05;;;;;;;11.43;8.95;;;4.20;92.60;;;;;;5071284;28;20103;-76
2021/03/23 01:22:31;;;;;;;11.10;8.80;;;4.50;91.50;;;;;;5058605;28;20041;-75
2021/03/23 01:24:56;;;;;;;9.45;8.00;;;4.50;91.70;;;;;;5059282;28;20116;-76
2021/03/23 01:27:22;;;;;;;12.05;8.40;;;4.40;92.80;;;;;;5062574;28;20028;-76
2021/03/23 01:29:48;;;;;;;15.32;8.45;;;4.40;92.80;;;;;;5052905;28;20053;-76
2021/03/23 01:32:13;;;;;;;9.38;8.18;;;4.30;92.70;;;;;;5053426;28;20032;-76
2021/03/23 01:34:39;;;;;;;9.95;7.57;;;4.20;92.80;;;;;;5051963;28;20028;-76
2021/03/23 01:37:05;;;;;;;10.73;7.88;;;3.90;92.80;;;;;;5051809;28;20048;-75
2021/03/23 01:39:31;;;;;;;9.88;7.32;;;3.80;94.50;;;;;;5052113;28;20025;-75
2021/03/23 01:41:56;;;;;;;11.40;8.18;;;3.70;92.80;;;;;;5052051;28;20490;-76
2021/03/23 01:44:22;;;;;;;10.05;7.95;;;3.80;94.30;;;;;;5052689;28;20021;-76
2021/03/23 01:46:50;;;;;;;10.48;7.47;;;3.70;93.80;;;;;;5059887;28;20029;-75
2021/03/23 01:49:28;;;;;;;12.85;8.27;;;3.50;93.40;;;;;;5060082;28;20036;-75
2021/03/23 01:51:58;;;;;;;11.80;8.75;;;3.40;94.30;;;;;;5062165;28;20024;-76
2021/03/23 01:54:33;;;;;;;18.55;12.32;;;3.50;95.00;;;;;;5062261;28;20492;-75
2021/03/23 01:57:04;;;;;;;25.58;13.95;;;3.50;94.30;;;;;;5065555;28;20087;-76
2021/03/23 01:59:32;;;;;;;31.55;16.35;;;3.60;95.20;;;;;;5067356;28;20025;-76
2021/03/23 02:02:01;;;;;;;43.67;20.15;;;3.70;95.00;;;;;;5065297;28;20028;-75
2021/03/23 02:04:27;;;;;;;21.77;14.32;;;3.80;94.90;;;;;;5064042;28;20499;-75
2021/03/23 02:06:53;;;;;;;16.65;11.13;;;3.50;93.70;;;;;;5063960;28;20168;-75
2021/03/23 02:09:26;;;;;;;11.50;8.65;;;2.80;95.30;;;;;;5071139;28;20424;-76
2021/03/23 02:12:01;;;;;;;10.45;8.50;;;2.30;96.20;;;;;;5063810;28;20059;-75
2021/03/23 02:14:31;;;;;;;11.90;9.07;;;2.00;99.20;;;;;;5067287;28;20116;-75
2021/03/23 02:17:16;;;;;;;10.80;8.40;;;2.10;99.90;;;;;;5063807;28;20033;-75
2021/03/23 02:19:42;;;;;;;11.68;8.65;;;2.80;99.90;;;;;;5063782;28;20482;-76
2021/03/23 02:22:36;;;;;;;12.73;9.45;;;3.00;97.20;;;;;;5065555;28;20031;-76
2021/03/23 02:25:05;;;;;;;13.15;9.13;;;2.80;95.20;;;;;;5062895;28;20033;-75
2021/03/23 02:27:31;;;;;;;12.38;8.50;;;2.80;98.70;;;;;;5068034;28;20029;-75
2021/03/23 02:29:59;;;;;;;10.95;8.50;;;3.00;97.40;;;;;;5075501;28;20400;-76
2021/03/23 02:32:25;;;;;;;9.65;7.72;;;2.90;96.20;;;;;;5060722;28;20396;-76
2021/03/23 02:34:51;;;;;;;10.15;7.32;;;2.80;95.80;;;;;;5074173;28;20029;-76
2021/03/23 02:37:17;;;;;;;11.65;9.18;;;2.80;95.80;;;;;;5063393;28;20036;-75
2021/03/23 02:39:43;;;;;;;12.80;8.38;;;2.70;97.10;;;;;;5063127;28;20021;-75
2021/03/23 02:42:10;;;;;;;9.40;7.05;;;2.60;96.70;;;;;;5064905;28;20047;-75
2021/03/23 02:44:44;;;;;;;10.65;7.40;;;2.60;97.10;;;;;;5061846;28;20028;-75
2021/03/23 02:47:11;;;;;;;9.82;7.57;;;2.50;97.20;;;;;;5062280;28;20417;-76
2021/03/23 02:49:37;;;;;;;10.73;7.78;;;2.50;97.90;;;;;;5074651;28;20037;-75
2021/03/23 02:52:04;;;;;;;10.80;8.65;;;2.50;96.80;;;;;;5075219;28;20082;-76
2021/03/23 02:54:30;;;;;;;12.02;9.45;;;2.50;98.30;;;;;;5075227;28;20035;-76
2021/03/23 02:56:55;;;;;;;13.75;10.00;;;2.00;99.30;;;;;;5075126;28;20036;-76
2021/03/23 02:59:21;;;;;;;11.80;10.45;;;2.00;99.90;;;;;;5074856;28;20033;-76
2021/03/23 03:01:47;;;;;;;13.75;9.07;;;2.20;99.90;;;;;;5070846;28;20024;-76
2021/03/23 03:04:12;;;;;;;14.02;8.30;;;2.40;99.90;;;;;;5066774;28;20032;-75
2021/03/23 03:06:39;;;;;;;10.88;6.82;;;2.60;98.70;;;;;;5073994;28;20036;-75
2021/03/23 03:09:05;;;;;;;10.70;7.10;;;2.40;95.60;;;;;;5074726;28;20035;-76
2021/03/23 03:11:31;;;;;;;13.82;8.25;;;1.80;95.00;;;;;;5074558;28;20040;-75
2021/03/23 03:13:57;;;;;;;12.25;8.95;;;1.70;96.30;;;;;;5070578;28;20477;-76
2021/03/23 03:16:23;;;;;;;10.48;8.23;;;1.60;97.50;;;;;;5070923;28;20029;-75
2021/03/23 03:18:48;;;;;;;11.73;8.43;;;1.80;99.90;;;;;;5054854;28;20021;-75
2021/03/23 03:21:14;;;;;;;11.30;8.50;;;2.20;98.70;;;;;;5060882;28;20024;-76
2021/03/23 03:23:40;;;;;;;11.13;7.18;;;2.20;98.00;;;;;;5074139;28;20041;-75
2021/03/23 03:26:06;;;;;;;10.48;8.00;;;2.10;98.10;;;;;;5074547;28;20028;-75
2021/03/23 03:28:33;;;;;;;11.48;8.32;;;2.00;99.90;;;;;;5074287;28;20035;-76
2021/03/23 03:30:59;;;;;;;11.95;8.50;;;2.10;99.90;;;;;;5069269;28;20045;-75
2021/03/23 03:33:26;;;;;;;12.93;8.70;;;2.10;99.90;;;;;;5062367;28;20351;-76
2021/03/23 03:35:52;;;;;;;15.85;9.73;;;2.10;99.20;;;;;;5060995;28;20103;-75
2021/03/23 03:38:21;;;;;;;17.13;10.50;;;2.10;98.00;;;;;;5061394;28;20024;-75
2021/03/23 03:40:58;;;;;;;17.60;10.88;;;1.80;96.70;;;;;;5059018;28;20017;-76
2021/03/23 03:43:27;;;;;;;20.30;11.82;;;1.60;98.90;;;;;;5059382;28;20423;-75
2021/03/23 03:45:54;;;;;;;20.00;11.15;;;1.60;99.40;;;;;;5052571;28;20029;-76
2021/03/23 03:48:19;;;;;;;17.20;11.40;;;1.80;99.90;;;;;;5068160;28;20064;-75
2021/03/23 03:50:45;;;;;;;15.95;10.40;;;1.70;99.80;;;;;;5066331;28;20523;-75
2021/03/23 03:53:12;;;;;;;13.02;9.63;;;2.00;99.90;;;;;;5061312;28;20043;-75
2021/03/23 03:55:41;;;;;;;11.80;8.93;;;2.10;99.90;;;;;;5059343;28;20071;-76
2021/03/23 03:58:07;;;;;;;12.15;9.13;;;1.90;99.70;;;;;;5067765;28;20059;-75
2021/03/23 04:00:34;;;;;;;15.07;9.13;;;1.40;99.90;;;;;;5068359;28;20035;-75
2021/03/23 04:03:02;;;;;;;12.10;8.73;;;1.50;99.90;;;;;;5060348;28;20107;-75
2021/03/23 04:05:32;;;;;;;12.30;9.50;;;1.60;99.90;;;;;;5073060;28;20048;-75
2021/03/23 04:07:58;;;;;;;12.65;8.75;;;1.60;99.20;;;;;;5072878;28;20020;-75
2021/03/23 04:10:24;;;;;;;13.82;9.65;;;1.40;97.80;;;;;;5072862;28;20037;-75
2021/03/23 04:12:50;;;;;;;13.30;9.65;;;1.30;99.80;;;;;;5072232;28;20024;-75
2021/03/23 04:15:25;;;;;;;14.10;9.48;;;1.40;99.90;;;;;;5072317;28;20033;-75
2021/03/23 04:17:51;;;;;;;10.82;8.10;;;1.40;99.90;;;;;;5071979;28;20354;-75
2021/03/23 04:20:17;;;;;;;11.77;8.27;;;1.50;99.70;;;;;;5072924;28;20032;-75
2021/03/23 04:22:44;;;;;;;12.85;9.10;;;1.50;99.50;;;;;;5073383;28;20063;-75
2021/03/23 04:25:12;;;;;;;12.43;10.05;;;1.30;99.20;;;;;;5073135;28;20434;-75
2021/03/23 04:27:37;;;;;;;12.95;10.00;;;1.40;99.90;;;;;;5071635;28;20037;-75
2021/03/23 04:30:05;;;;;;;15.48;9.55;;;1.60;99.90;;;;;;5072588;28;20060;-75
2021/03/23 04:32:31;;;;;;;13.45;9.77;;;1.60;99.90;;;;;;5053289;28;20500;-75
2021/03/23 04:34:57;;;;;;;13.68;10.48;;;1.50;98.20;;;;;;5053970;28;20033;-75
2021/03/23 04:37:22;;;;;;;13.55;9.85;;;1.30;99.20;;;;;;5072184;28;20044;-76
2021/03/23 04:39:48;;;;;;;22.67;12.60;;;1.20;99.80;;;;;;5072535;28;20032;-76
2021/03/23 04:42:14;;;;;;;14.38;10.18;;;1.40;99.90;;;;;;5072784;28;20024;-76
2021/03/23 04:44:40;;;;;;;15.52;10.65;;;1.30;99.10;;;;;;5072872;28;20089;-76
2021/03/23 04:47:06;;;;;;;17.23;11.23;;;1.30;99.90;;;;;;5073333;28;20033;-75
2021/03/23 04:49:32;;;;;;;23.27;14.52;;;1.40;99.90;;;;;;5073236;28;20029;-76
2021/03/23 04:51:58;;;;;;;19.20;12.85;;;1.40;99.90;;;;;;5073332;28;20028;-75
2021/03/23 04:54:24;;;;;;;18.20;11.13;;;1.50;99.90;;;;;;5071839;28;20032;-75
2021/03/23 04:56:50;;;;;;;17.30;11.30;;;1.40;99.90;;;;;;5073135;28;20038;-75
2021/03/23 04:59:16;;;;;;;18.20;11.60;;;1.20;98.30;;;;;;5072946;28;20028;-75
2021/03/23 05:01:42;;;;;;;21.30;15.10;;;1.20;99.90;;;;;;5070782;28;20048;-76
2021/03/23 05:04:13;;;;;;;16.20;11.63;;;1.20;99.90;;;;;;5073175;28;20047;-76
2021/03/23 05:06:39;;;;;;;47.67;29.48;;;1.20;99.90;;;;;;5072883;28;20032;-76
2021/03/23 05:09:05;;;;;;;43.42;26.27;;;1.20;99.90;;;;;;5072535;28;20028;-75
2021/03/23 05:11:32;;;;;;;41.78;24.90;;;1.20;99.90;;;;;;5072790;28;20035;-75
2021/03/23 05:13:59;;;;;;;61.13;36.85;;;1.10;99.70;;;;;;5072566;28;20035;-75
2021/03/23 05:16:24;;;;;;;31.63;20.25;;;1.00;99.30;;;;;;5071489;28;20033;-75
2021/03/23 05:18:51;;;;;;;22.65;14.10;;;0.90;99.90;;;;;;5072633;28;20040;-76
2021/03/23 05:21:18;;;;;;;22.23;15.73;;;0.90;99.90;;;;;;5072742;28;20380;-75
2021/03/23 05:23:44;;;;;;;28.08;17.42;;;1.10;99.90;;;;;;5072568;28;20095;-75
2021/03/23 05:26:10;;;;;;;33.40;21.30;;;1.30;99.90;;;;;;5072848;28;20032;-75
2021/03/23 05:28:36;;;;;;;33.83;19.75;;;1.30;99.90;;;;;;5073306;28;20021;-76
2021/03/23 05:31:05;;;;;;;32.88;19.67;;;1.10;99.70;;;;;;5072460;28;20052;-75
2021/03/23 05:33:31;;;;;;;38.27;22.47;;;0.90;99.50;;;;;;5074964;28;20044;-75
2021/03/23 05:35:58;;;;;;;39.80;25.98;;;0.70;99.20;;;;;;5076811;28;20296;-75
2021/03/23 05:38:28;;;;;;;28.42;17.67;;;0.70;99.90;;;;;;5076524;28;20074;-76
2021/03/23 05:41:37;;;;;;;16.58;12.98;;;0.90;99.90;;;;;;5072694;28;20451;-75
2021/03/23 05:44:07;;;;;;;16.35;10.93;;;1.00;99.90;;;;;;4995121;28;20034;-75
2021/03/23 05:46:38;;;;;;;15.65;11.73;;;0.80;98.10;;;;;;4978643;28;20511;-76
2021/03/23 05:49:28;;;;;;;21.67;15.45;;;0.40;97.20;;;;;;4995038;28;20534;-75
2021/03/23 05:52:08;;;;;;;58.50;40.53;;;0.20;99.80;;;;;;4994499;28;20073;-75
2021/03/23 05:55:15;;;;;;;26.45;17.05;;;0.10;99.90;;;;;;4994233;28;20050;-76
2021/03/23 05:57:46;;;;;;;20.13;13.20;;;0.20;99.90;;;;;;4936943;29;20032;-75
2021/03/23 06:00:24;;;;;;;15.00;10.98;;;0.40;99.90;;;;;;4936596;29;20039;-73
2021/03/23 06:03:17;;;;;;;19.02;12.30;;;0.40;99.90;;;;;;4936362;29;20035;-75
2021/03/23 06:06:04;;;;;;;20.95;15.52;;;0.60;99.90;;;;;;4935563;29;20040;-75
2021/03/23 06:08:36;;;;;;;17.40;12.73;;;0.90;99.90;;;;;;4933163;29;20107;-75
2021/03/23 06:11:05;;;;;;;16.25;10.68;;;1.00;99.90;;;;;;4930776;29;20028;-75
2021/03/23 06:13:49;;;;;;;15.32;10.55;;;1.00;99.90;;;;;;4933607;29;20047;-75
2021/03/23 06:16:43;;;;;;;12.52;8.98;;;0.40;99.90;;;;;;4928477;29;20024;-75
2021/03/23 06:19:20;;;;;;;14.35;9.23;;;0.60;99.90;;;;;;4928554;29;20040;-75
2021/03/23 06:21:55;;;;;;;13.95;9.82;;;0.80;99.90;;;;;;5000091;28;20529;-75
2021/03/23 06:24:41;;;;;;;16.40;11.27;;;1.00;99.90;;;;;;5006729;28;20037;-75
2021/03/23 06:27:23;;;;;;;15.63;9.63;;;1.10;99.90;;;;;;5015264;28;20398;-75
2021/03/23 06:30:17;;;;;;;16.98;10.75;;;0.90;98.90;;;;;;5006698;28;20119;-76
2021/03/23 06:32:50;;;;;;;20.05;12.07;;;0.80;99.20;;;;;;5029145;28;20127;-76
2021/03/23 06:35:29;;;;;;;21.10;11.85;;;1.00;99.90;;;;;;5071590;28;20107;-76
2021/03/23 06:37:56;;;;;;;20.38;11.70;;;1.10;99.90;;;;;;5069236;28;20024;-76
2021/03/23 06:40:26;;;;;;;21.85;13.68;;;1.10;99.50;;;;;;5072131;28;20016;-76
2021/03/23 06:42:55;;;;;;;29.30;18.52;;;1.20;99.00;;;;;;5063770;28;20027;-76
2021/03/23 06:45:31;;;;;;;23.17;15.35;;;1.30;99.10;;;;;;5074897;28;20037;-77
2021/03/23 06:48:19;;;;;;;35.88;25.17;;;1.30;99.40;;;;;;5075102;28;20064;-78
2021/03/23 06:50:46;;;;;;;20.65;12.73;;;1.40;99.90;;;;;;5074794;28;20059;-78
2021/03/23 06:53:16;;;;;;;17.55;13.30;;;1.50;99.90;;;;;;5075210;28;20052;-78
2021/03/23 06:55:45;;;;;;;;;;;1.70;99.90;;;;;;5075573;28;20025;-79
2021/03/23 06:58:24;;;;;;;23.65;15.85;;;1.90;99.50;;;;;;5074760;28;19950;-78
2021/03/23 07:01:23;;;;;;;29.98;15.32;;;2.00;99.70;;;;;;5074658;28;20027;-78
2021/03/23 07:03:54;;;;;;;19.63;12.80;;;2.00;99.60;;;;;;5074382;28;20035;-78
2021/03/23 07:06:31;;;;;;;20.38;13.70;;;2.10;99.30;;;;;;5074257;28;20027;-78
2021/03/23 07:09:12;;;;;;;19.88;13.02;;;2.20;99.40;;;;;;5074255;28;20407;-79
2021/03/23 07:12:03;;;;;;;16.52;11.32;;;2.30;99.50;;;;;;5075934;28;20021;-77
2021/03/23 07:14:37;;;;;;;15.48;10.35;;;2.40;99.30;;;;;;5074137;28;20384;-77
2021/03/23 07:17:08;;;;;;;16.30;10.50;;;2.40;99.20;;;;;;5074353;28;20013;-77
2021/03/23 07:19:53;;;;;;;12.63;9.68;;;2.50;99.30;;;;;;5073988;28;20025;-77
2021/03/23 07:22:41;;;;;;;16.00;10.00;;;2.70;99.20;;;;;;5072787;28;20017;-77
2021/03/23 07:25:33;;;;;;;14.57;9.75;;;2.90;98.90;;;;;;5074128;28;20024;-77
2021/03/23 07:28:26;;;;;;;15.23;10.27;;;2.90;98.90;;;;;;5073888;28;20082;-76
2021/03/23 07:31:21;;;;;;;15.18;9.57;;;3.20;97.90;;;;;;5073675;28;20048;-78
2021/03/23 07:34:08;;;;;;;11.18;8.02;;;3.30;97.60;;;;;;5073444;28;20025;-77
2021/03/23 07:36:36;;;;;;;12.23;8.23;;;3.50;97.70;;;;;;5073738;28;20508;-78
2021/03/23 07:39:05;;;;;;;11.13;7.85;;;3.60;97.30;;;;;;5072384;28;20396;-78
2021/03/23 07:41:43;;;;;;;42.30;9.63;;;3.60;97.70;;;;;;5074022;28;20028;-78
2021/03/23 07:44:36;;;;;;;12.95;8.18;;;3.90;97.30;;;;;;5073685;28;20401;-78
2021/03/23 07:47:26;;;;;;;13.60;8.00;;;4.10;97.00;;;;;;5073466;28;20025;-78
2021/03/23 07:49:58;;;;;;;24.85;9.48;;;4.30;96.40;;;;;;5072865;28;20060;-78
2021/03/23 07:52:30;;;;;;;11.38;7.68;;;4.60;96.30;;;;;;5073100;28;20500;-78
2021/03/23 07:54:58;;;;;;;12.23;7.57;;;4.80;95.40;;;;;;5073555;28;20040;-78
2021/03/23 07:57:52;;;;;;;12.00;7.95;;;5.10;94.20;;;;;;5073604;28;20031;-78
2021/03/23 08:00:45;;;;;;;10.55;7.68;;;5.10;94.00;;;;;;5073523;28;20094;-78
2021/03/23 08:03:23;;;;;;;11.57;8.57;;;5.50;94.50;;;;;;5072976;28;20550;-78
2021/03/23 08:06:05;;;;;;;12.75;8.48;;;5.90;94.40;;;;;;5073176;28;20075;-78
2021/03/23 08:08:39;;;;;;;10.93;8.60;;;6.20;93.70;;;;;;5072951;28;20103;-78
2021/03/23 08:11:13;;;;;;;12.93;8.75;;;6.50;92.00;;;;;;5073172;28;20031;-78
2021/03/23 08:14:24;;;;;;;15.85;8.95;;;6.70;91.40;;;;;;5073103;28;20032;-78
2021/03/23 08:17:11;;;;;;;;;;;6.80;91.50;;;;;;5057851;28;20036;-78
2021/03/23 08:20:05;;;;;;;10.50;8.48;;;7.20;91.50;;;;;;5073291;28;20386;-78
2021/03/23 08:23:02;;;;;;;10.68;8.25;;;7.50;90.30;;;;;;5010964;28;20048;-78
2021/03/23 08:25:43;;;;;;;13.13;8.13;;;7.80;88.10;;;;;;5011243;28;20074;-78
2021/03/23 08:28:12;;;;;;;11.57;8.32;;;8.10;88.20;;;;;;5011176;28;20460;-78
2021/03/23 08:31:16;;;;;;;10.23;7.68;;;8.60;88.90;;;;;;5010892;28;20057;-78
2021/03/23 08:33:56;;;;;;;9.90;7.00;;;9.10;86.40;;;;;;5010806;28;20117;-77
2021/03/23 08:36:41;;;;;;;8.63;7.10;;;9.60;85.20;;;;;;5010954;28;20410;-78
2021/03/23 08:39:40;;;;;;;9.57;6.82;;;10.00;82.30;;;;;;4994332;28;20113;-78
2021/03/23 08:42:28;;;;;;;11.38;8.23;;;10.30;83.10;;;;;;5010900;28;20240;-78
2021/03/23 08:45:22;;;;;;;8.70;7.32;;;14.30;67.80;;;;;;5011064;28;20026;-78
2021/03/23 08:48:06;;;;;;;18.90;7.38;;;17.30;56.10;;;;;;5009974;28;20065;-79
2021/03/23 08:50:34;;;;;;;10.23;7.43;;;18.70;50.10;;;;;;5010966;28;20487;-78
2021/03/23 08:53:01;;;;;;;8.38;7.57;;;20.10;45.60;;;;;;5010504;28;20040;-78
2021/03/23 08:55:30;;;;;;;11.57;7.20;;;20.30;45.30;;;;;;5010975;28;20033;-79
2021/03/23 08:58:06;;;;;;;17.38;7.32;;;20.10;44.50;;;;;;5010551;28;20060;-78
2021/03/23 09:00:35;;;;;;;8.10;7.00;;;20.30;44.60;;;;;;5064312;28;20036;-79
2021/03/23 09:03:22;;;;;;;8.18;7.38;;;21.00;43.10;;;;;;5071669;28;20062;-79
2021/03/23 09:05:51;;;;;;;8.38;6.72;;;21.20;43.70;;;;;;5071751;28;20616;-79
2021/03/23 09:08:36;;;;;;;8.30;6.90;;;20.50;43.80;;;;;;5072367;28;20125;-78
2021/03/23 09:11:08;;;;;;;8.32;6.95;;;19.60;45.20;;;;;;5072370;28;20431;-79
2021/03/23 09:13:33;;;;;;;7.13;6.53;;;19.40;42.20;;;;;;5072294;28;20035;-79
2021/03/23 09:16:02;;;;;;;7.78;6.97;;;19.20;43.20;;;;;;5071924;28;20139;-79
2021/03/23 09:18:30;;;;;;;8.13;6.45;;;19.50;42.70;;;;;;5071096;28;20266;-79
2021/03/23 09:21:00;;;;;;;8.88;6.47;;;18.30;42.90;;;;;;5072169;28;20054;-78
2021/03/23 09:23:27;;;;;;;;;;;19.70;42.80;;;;;;5072782;28;20028;-79
2021/03/23 09:25:57;;;;;;;7.68;5.90;;;20.20;43.30;;;;;;5072209;28;19904;-79
2021/03/23 09:28:32;;;;;;;13.55;7.28;;;19.90;42.90;;;;;;5072304;28;20024;-78
2021/03/23 09:31:01;;;;;;;6.53;5.95;;;20.50;44.70;;;;;;5071702;28;20044;-79
2021/03/23 09:33:31;;;;;;;8.75;7.28;;;22.20;41.90;;;;;;5072118;28;20099;-78
2021/03/23 09:36:09;;;;;;;9.57;6.53;;;21.90;38.60;;;;;;5072116;28;20024;-79
2021/03/23 09:38:49;;;;;;;7.80;6.15;;;22.30;39.00;;;;;;5072233;28;20115;-78
2021/03/23 09:41:21;;;;;;;6.97;6.18;;;23.20;37.20;;;;;;5072143;28;20123;-79
2021/03/23 09:43:53;;;;;;;6.85;6.25;;;22.80;38.10;;;;;;5072012;28;20055;-79
2021/03/23 09:46:24;;;;;;;8.23;5.80;;;22.50;37.40;;;;;;5071587;28;20024;-78
2021/03/23 09:48:56;;;;;;;6.65;5.80;;;21.80;38.90;;;;;;5071967;28;20477;-79
2021/03/23 09:51:21;;;;;;;6.65;6.05;;;22.40;42.10;;;;;;5071919;28;20433;-79
2021/03/23 09:53:47;;;;;;;6.47;5.78;;;23.50;37.60;;;;;;5072042;28;20060;-79
2021/03/23 09:56:19;;;;;;;5.57;5.07;;;24.10;35.50;;;;;;5071820;28;20381;-79
2021/03/23 09:58:45;;;;;;;5.63;4.95;;;22.30;37.90;;;;;;5071522;28;20024;-79
2021/03/23 10:01:20;;;;;;;5.65;5.15;;;22.60;38.20;;;;;;5071675;28;20107;-79
2021/03/23 10:03:48;;;;;;;6.53;5.80;;;21.90;36.30;;;;;;5071722;28;20112;-79
2021/03/23 10:06:18;;;;;;;7.07;5.50;;;20.70;36.90;;;;;;5071758;28;20381;-79
2021/03/23 10:09:07;;;;;;;6.13;5.53;;;21.60;39.60;;;;;;5071638;28;20440;-79
2021/03/23 10:11:39;;;;;;;5.80;5.30;;;21.90;37.50;;;;;;5070558;28;20032;-79
2021/03/23 10:14:12;;;;;;;5.38;4.90;;;24.80;36.10;;;;;;5071457;28;20060;-80
2021/03/23 10:16:40;;;;;;;9.70;5.90;;;25.20;36.80;;;;;;5075409;28;20471;-80
2021/03/23 10:19:21;;;;;;;9.25;5.32;;;27.00;33.20;;;;;;5075460;28;20024;-80
2021/03/23 10:21:50;;;;;;;6.97;5.18;;;25.20;33.30;;;;;;5075422;28;20017;-80
2021/03/23 10:24:25;;;;;;;7.88;5.35;;;25.10;33.70;;;;;;5075247;28;20028;-80
2021/03/23 10:26:54;;;;;;;6.25;4.93;;;26.20;34.10;;;;;;5075284;28;20025;-80
2021/03/23 10:29:26;;;;;;;5.13;4.72;;;27.00;34.20;;;;;;5074454;28;20127;-80
2021/03/23 10:31:56;;;;;;;4.40;3.88;;;27.00;32.10;;;;;;5075122;28;20025;-80
2021/03/23 10:34:25;;;;;;;8.73;4.97;;;26.50;30.20;;;;;;5074973;28;20543;-80
2021/03/23 10:36:56;;;;;;;5.53;4.50;;;26.00;30.50;;;;;;5075234;28;20523;-81
2021/03/23 10:39:35;;;;;;;6.30;4.32;;;27.40;33.70;;;;;;5074855;28;20030;-81
2021/03/23 10:42:14;;;;;;;4.25;3.80;;;29.50;33.30;;;;;;5074785;28;20025;-81
2021/03/23 10:44:40;;;;;;;4.70;4.22;;;28.20;29.40;;;;;;5074794;28;20040;-81
2021/03/23 10:47:07;;;;;;;5.13;4.63;;;26.50;29.50;;;;;;5074864;28;20035;-81
2021/03/23 10:49:37;;;;;;;4.60;4.13;;;27.90;29.70;;;;;;5075108;28;20044;-81
2021/03/23 10:52:05;;;;;;;;;;;27.90;29.90;;;;;;5075139;28;20036;-81
2021/03/23 10:54:37;;;;;;;4.50;4.07;;;28.90;29.60;;;;;;5074833;28;19946;-81
2021/03/23 10:57:26;;;;;;;6.22;4.80;;;30.10;29.70;;;;;;5074398;28;20028;-81
2021/03/23 10:59:52;;;;;;;4.28;3.95;;;31.10;28.60;;;;;;5074618;28;20029;-81
2021/03/23 11:02:31;;;;;;;4.32;3.92;;;31.80;28.90;;;;;;5074358;28;20671;-81
2021/03/23 11:05:21;;;;;;;4.82;4.43;;;31.90;27.60;;;;;;5074487;28;20392;-81
2021/03/23 11:07:55;;;;;;;4.57;4.10;;;31.70;26.80;;;;;;5074531;28;20513;-82
2021/03/23 11:10:24;;;;;;;5.68;4.57;;;30.00;28.70;;;;;;5073287;28;20059;-82
2021/03/23 11:12:49;;;;;;;5.00;3.55;;;29.70;24.80;;;;;;5074167;28;20025;-82
2021/03/23 11:15:16;;;;;;;5.40;4.93;;;29.00;26.80;;;;;;5073976;28;20105;-82
2021/03/23 11:17:49;;;;;;;4.68;4.10;;;27.40;27.40;;;;;;5074265;28;20052;-81
2021/03/23 11:20:24;;;;;;;3.97;3.58;;;26.40;28.40;;;;;;5074382;28;20124;-82
2021/03/23 11:22:52;;;;;;;6.82;3.92;;;27.20;28.30;;;;;;5074279;28;20035;-81
2021/03/23 11:25:20;;;;;;;4.43;4.03;;;30.70;29.00;;;;;;5073857;28;20078;-81
2021/03/23 11:27:46;;;;;;;4.68;4.28;;;30.60;27.40;;;;;;5072732;28;20031;-82
2021/03/23 11:30:12;;;;;;;4.68;4.28;;;29.30;26.50;;;;;;5073878;28;20443;-82
2021/03/23 11:32:38;;;;;;;5.32;4.93;;;28.70;27.70;;;;;;5074071;28;20024;-82
2021/03/23 11:35:04;;;;;;;5.28;4.45;;;31.10;27.70;;;;;;5073909;28;20082;-82
2021/03/23 11:37:30;;;;;;;3.92;3.40;;;32.10;28.40;;;;;;5073831;28;20020;-82
2021/03/23 11:39:55;;;;;;;3.95;3.65;;;30.50;27.10;;;;;;5073799;28;20384;-82
2021/03/23 11:42:37;;;;;;;3.92;3.63;;;28.10;25.50;;;;;;5073415;28;20092;-82
2021/03/23 11:45:19;;;;;;;4.00;3.70;;;29.00;27.00;;;;;;5073905;28;20024;-82
2021/03/23 11:47:54;;;;;;;5.13;3.85;;;29.90;27.30;;;;;;5073742;28;20024;-82
2021/03/23 11:50:23;;;;;;;4.28;3.90;;;28.60;25.20;;;;;;5073453;28;20025;-82
2021/03/23 11:52:52;;;;;;;4.25;3.90;;;31.00;28.40;;;;;;5073572;28;20033;-82
2021/03/23 11:55:30;;;;;;;3.75;3.47;;;32.50;27.30;;;;;;5073127;28;20036;-82
2021/03/23 11:57:56;;;;;;;4.63;3.50;;;33.10;26.80;;;;;;5073546;28;20055;-82
2021/03/23 12:00:29;;;;;;;4.70;3.60;;;32.60;25.50;;;;;;5073360;28;20020;-82
2021/03/23 12:02:58;;;;;;;4.20;3.78;;;31.60;25.90;;;;;;5073394;28;20032;-82
2021/03/23 12:05:25;;;;;;;3.25;2.95;;;31.70;26.90;;;;;;5073282;28;20451;-82
2021/03/23 12:08:30;;;;;;;3.38;3.08;;;33.50;24.60;;;;;;5073358;28;20024;-82
2021/03/23 12:11:20;;;;;;;3.30;3.10;;;34.80;26.30;;;;;;5011321;28;20083;-82
2021/03/23 12:13:55;;;;;;;6.38;3.63;;;35.20;25.70;;;;;;5011383;28;20124;-82
2021/03/23 12:16:41;;;;;;;10.60;4.38;;;35.50;26.60;;;;;;5011290;28;20076;-82
2021/03/23 12:19:12;;;;;;;3.53;3.22;;;35.40;27.20;;;;;;5011365;28;20494;-82
2021/03/23 12:21:39;;;;;;;5.70;3.78;;;34.60;24.90;;;;;;5011305;28;20037;-82
2021/03/23 12:24:05;;;;;;;5.63;4.05;;;31.90;26.30;;;;;;5010884;28;20049;-82
2021/03/23 12:26:32;;;;;;;3.25;2.95;;;31.10;27.20;;;;;;5011147;28;20033;-82
2021/03/23 12:28:58;;;;;;;3.70;3.30;;;33.10;27.10;;;;;;5011076;28;20049;-79
2021/03/23 12:31:24;;;;;;;5.32;3.80;;;34.40;27.60;;;;;;5011080;28;20394;-80
2021/03/23 12:33:50;;;;;;;16.20;4.90;;;34.40;26.50;;;;;;5011149;28;20038;-80
2021/03/23 12:36:17;;;;;;;4.78;4.03;;;34.80;28.00;;;;;;5011102;28;20045;-80
2021/03/23 12:38:47;;;;;;;4.25;3.92;;;35.00;27.10;;;;;;5010606;28;20026;-80
2021/03/23 12:41:17;;;;;;;;;;;35.10;28.10;;;;;;5030427;28;20028;-80
2021/03/23 12:43:44;;;;;;;4.10;3.60;;;35.50;28.50;;;;;;5072757;28;19915;-80
2021/03/23 12:46:10;;;;;;;3.63;3.38;;;35.20;26.70;;;;;;5072786;28;20053;-80
2021/03/23 12:48:37;;;;;;;4.38;3.97;;;35.40;28.10;;;;;;5072721;28;20095;-80
2021/03/23 12:51:03;;;;;;;4.38;3.97;;;35.50;27.20;;;;;;5072600;28;20034;-80
2021/03/23 12:53:29;;;;;;;4.53;4.13;;;35.10;26.70;;;;;;5072377;28;20226;-81
2021/03/23 12:55:55;;;;;;;4.18;3.85;;;35.50;27.80;;;;;;5072653;28;20029;-80
2021/03/23 12:58:28;;;;;;;4.30;3.90;;;34.30;26.90;;;;;;5072502;28;20028;-80
2021/03/23 13:00:55;;;;;;;4.10;3.72;;;34.50;27.30;;;;;;5072605;28;20033;-80
2021/03/23 13:03:21;;;;;;;4.28;3.78;;;35.00;26.90;;;;;;5072366;28;20563;-81
2021/03/23 13:05:51;;;;;;;5.22;4.38;;;35.30;27.90;;;;;;5072408;28;20029;-81
2021/03/23 13:08:25;;;;;;;6.65;3.80;;;35.80;27.80;;;;;;5072105;28;20025;-81
2021/03/23 13:10:53;;;;;;;4.68;4.28;;;35.70;27.00;;;;;;5072456;28;20056;-81